sensor_id;sensor_type;location;lat;lon;timestamp;P1;durP1;ratioP1;P2;durP2;ratioP2
2480;SDS011;57396;48.742;9.128;2022-12-08T00:01:33;13.13;;;8.27;;
2480;SDS011;57396;48.742;9.128;2022-12-08T00:03:59;11.63;;;8.57;;
2480;SDS011;57396;48.742;9.128;2022-12-08T00:06:29;13.50;;;9.73;;
2480;SDS011;57396;48.742;9.128;2022-12-08T00:12:03;13.57;;;9.23;;
2480;SDS011;57396;48.742;9.128;2022-12-08T00:14:34;13.37;;;9.80;;
2480;SDS011;57396;48.742;9.128;2022-12-08T00:17:01;12.70;;;8.60;;
2480;SDS011;57396;48.742;9.128;2022-12-08T00:19:27;11.23;;;8.60;;
2480;SDS011;57396;48.742;9.128;2022-12-08T00:21:53;12.43;;;9.03;;
2480;SDS011;57396;48.742;9.128;2022-12-08T00:24:20;17.87;;;9.37;;
2480;SDS011;57396;48.742;9.128;2022-12-08T00:26:46;13.27;;;8.97;;
2480;SDS011;57396;48.742;9.128;2022-12-08T00:29:12;12.03;;;8.67;;
2480;SDS011;57396;48.742;9.128;2022-12-08T00:31:38;12.73;;;8.83;;
2480;SDS011;57396;48.742;9.128;2022-12-08T00:34:04;13.27;;;8.77;;
2480;SDS011;57396;48.742;9.128;2022-12-08T00:36:29;10.30;;;8.20;;
2480;SDS011;57396;48.742;9.128;2022-12-08T00:38:55;12.27;;;8.17;;
2480;SDS011;57396;48.742;9.128;2022-12-08T00:41:22;11.10;;;8.40;;
2480;SDS011;57396;48.742;9.128;2022-12-08T00:44:09;11.40;;;8.03;;
2480;SDS011;57396;48.742;9.128;2022-12-08T00:46:35;10.50;;;9.00;;
2480;SDS011;57396;48.742;9.128;2022-12-08T00:49:01;13.10;;;8.90;;
2480;SDS011;57396;48.742;9.128;2022-12-08T00:51:27;12.27;;;9.23;;
2480;SDS011;57396;48.742;9.128;2022-12-08T00:53:52;12.93;;;9.87;;
2480;SDS011;57396;48.742;9.128;2022-12-08T00:56:17;12.70;;;9.10;;
2480;SDS011;57396;48.742;9.128;2022-12-08T00:58:43;15.20;;;9.90;;
2480;SDS011;57396;48.742;9.128;2022-12-08T01:01:12;14.97;;;9.77;;
2480;SDS011;57396;48.742;9.128;2022-12-08T01:03:38;14.03;;;9.40;;
2480;SDS011;57396;48.742;9.128;2022-12-08T01:06:04;11.73;;;8.50;;
2480;SDS011;57396;48.742;9.128;2022-12-08T01:08:30;14.60;;;9.07;;
2480;SDS011;57396;48.742;9.128;2022-12-08T01:11:01;11.27;;;8.20;;
2480;SDS011;57396;48.742;9.128;2022-12-08T01:13:34;11.23;;;8.33;;
2480;SDS011;57396;48.742;9.128;2022-12-08T01:16:00;11.80;;;7.67;;
2480;SDS011;57396;48.742;9.128;2022-12-08T01:18:26;13.67;;;8.47;;
2480;SDS011;57396;48.742;9.128;2022-12-08T01:20:51;9.77;;;7.97;;
2480;SDS011;57396;48.742;9.128;2022-12-08T01:23:17;9.50;;;8.07;;
2480;SDS011;57396;48.742;9.128;2022-12-08T01:25:42;13.30;;;9.10;;
2480;SDS011;57396;48.742;9.128;2022-12-08T01:28:08;14.27;;;8.77;;
2480;SDS011;57396;48.742;9.128;2022-12-08T01:30:34;15.63;;;9.17;;
2480;SDS011;57396;48.742;9.128;2022-12-08T01:33:01;15.73;;;9.83;;
2480;SDS011;57396;48.742;9.128;2022-12-08T01:35:27;14.77;;;9.80;;
2480;SDS011;57396;48.742;9.128;2022-12-08T01:37:52;11.07;;;8.60;;
2480;SDS011;57396;48.742;9.128;2022-12-08T01:40:18;14.67;;;9.60;;
2480;SDS011;57396;48.742;9.128;2022-12-08T01:42:43;13.23;;;9.80;;
2480;SDS011;57396;48.742;9.128;2022-12-08T01:45:13;13.37;;;8.93;;
2480;SDS011;57396;48.742;9.128;2022-12-08T01:47:40;12.53;;;9.10;;
2480;SDS011;57396;48.742;9.128;2022-12-08T01:50:07;16.50;;;9.30;;
2480;SDS011;57396;48.742;9.128;2022-12-08T01:52:39;10.90;;;7.90;;
2480;SDS011;57396;48.742;9.128;2022-12-08T01:55:27;11.23;;;8.00;;
2480;SDS011;57396;48.742;9.128;2022-12-08T01:58:06;12.03;;;8.40;;
2480;SDS011;57396;48.742;9.128;2022-12-08T02:00:37;16.00;;;9.23;;
2480;SDS011;57396;48.742;9.128;2022-12-08T02:03:03;13.73;;;8.93;;
2480;SDS011;57396;48.742;9.128;2022-12-08T02:05:35;14.40;;;9.20;;
2480;SDS011;57396;48.742;9.128;2022-12-08T02:08:03;13.90;;;9.80;;
2480;SDS011;57396;48.742;9.128;2022-12-08T02:10:35;15.40;;;8.17;;
2480;SDS011;57396;48.742;9.128;2022-12-08T02:13:02;13.30;;;8.80;;
2480;SDS011;57396;48.742;9.128;2022-12-08T02:15:44;12.00;;;8.63;;
2480;SDS011;57396;48.742;9.128;2022-12-08T02:21:15;13.50;;;7.60;;
2480;SDS011;57396;48.742;9.128;2022-12-08T02:26:37;10.70;;;7.47;;
2480;SDS011;57396;48.742;9.128;2022-12-08T02:36:08;14.30;;;8.77;;
2480;SDS011;57396;48.742;9.128;2022-12-08T02:41:02;11.13;;;7.60;;
2480;SDS011;57396;48.742;9.128;2022-12-08T02:43:37;9.67;;;7.27;;
2480;SDS011;57396;48.742;9.128;2022-12-08T02:46:07;15.47;;;9.10;;
2480;SDS011;57396;48.742;9.128;2022-12-08T02:48:35;12.60;;;8.53;;
2480;SDS011;57396;48.742;9.128;2022-12-08T02:51:00;11.67;;;8.20;;
2480;SDS011;57396;48.742;9.128;2022-12-08T02:53:29;13.87;;;8.50;;
2480;SDS011;57396;48.742;9.128;2022-12-08T02:56:11;12.23;;;7.93;;
2480;SDS011;57396;48.742;9.128;2022-12-08T03:09:23;12.87;;;8.67;;
2480;SDS011;57396;48.742;9.128;2022-12-08T03:14:29;13.30;;;8.63;;
2480;SDS011;57396;48.742;9.128;2022-12-08T03:16:55;12.77;;;9.00;;
2480;SDS011;57396;48.742;9.128;2022-12-08T03:19:23;10.90;;;8.00;;
2480;SDS011;57396;48.742;9.128;2022-12-08T03:21:52;12.70;;;8.50;;
2480;SDS011;57396;48.742;9.128;2022-12-08T03:24:24;14.03;;;8.63;;
2480;SDS011;57396;48.742;9.128;2022-12-08T03:27:01;12.30;;;7.93;;
2480;SDS011;57396;48.742;9.128;2022-12-08T03:29:29;11.27;;;8.07;;
2480;SDS011;57396;48.742;9.128;2022-12-08T03:32:00;13.27;;;8.23;;
2480;SDS011;57396;48.742;9.128;2022-12-08T03:34:31;11.80;;;8.50;;
2480;SDS011;57396;48.742;9.128;2022-12-08T03:36:58;11.00;;;7.70;;
2480;SDS011;57396;48.742;9.128;2022-12-08T03:39:24;9.30;;;8.00;;
2480;SDS011;57396;48.742;9.128;2022-12-08T03:41:50;11.93;;;8.83;;
2480;SDS011;57396;48.742;9.128;2022-12-08T03:44:15;9.80;;;7.83;;
2480;SDS011;57396;48.742;9.128;2022-12-08T03:46:40;12.43;;;8.30;;
2480;SDS011;57396;48.742;9.128;2022-12-08T03:49:06;13.97;;;8.87;;
2480;SDS011;57396;48.742;9.128;2022-12-08T03:51:31;10.43;;;7.40;;
2480;SDS011;57396;48.742;9.128;2022-12-08T03:53:57;12.13;;;7.73;;
2480;SDS011;57396;48.742;9.128;2022-12-08T03:56:29;17.70;;;8.17;;
2480;SDS011;57396;48.742;9.128;2022-12-08T03:58:56;13.00;;;8.30;;
2480;SDS011;57396;48.742;9.128;2022-12-08T04:01:22;9.80;;;7.17;;
2480;SDS011;57396;48.742;9.128;2022-12-08T04:03:48;12.50;;;9.03;;
2480;SDS011;57396;48.742;9.128;2022-12-08T04:06:14;13.27;;;8.43;;
2480;SDS011;57396;48.742;9.128;2022-12-08T04:08:39;16.90;;;8.50;;
2480;SDS011;57396;48.742;9.128;2022-12-08T04:11:05;11.17;;;8.23;;
2480;SDS011;57396;48.742;9.128;2022-12-08T04:13:32;10.90;;;8.20;;
2480;SDS011;57396;48.742;9.128;2022-12-08T04:15:58;11.30;;;8.60;;
2480;SDS011;57396;48.742;9.128;2022-12-08T04:18:24;12.23;;;8.40;;
2480;SDS011;57396;48.742;9.128;2022-12-08T04:20:49;13.47;;;8.57;;
2480;SDS011;57396;48.742;9.128;2022-12-08T04:23:15;11.90;;;8.00;;
2480;SDS011;57396;48.742;9.128;2022-12-08T04:25:40;11.60;;;7.97;;
2480;SDS011;57396;48.742;9.128;2022-12-08T04:28:06;11.50;;;8.33;;
2480;SDS011;57396;48.742;9.128;2022-12-08T04:30:31;10.73;;;7.97;;
2480;SDS011;57396;48.742;9.128;2022-12-08T04:32:57;9.60;;;7.60;;
2480;SDS011;57396;48.742;9.128;2022-12-08T04:35:23;12.40;;;8.33;;
2480;SDS011;57396;48.742;9.128;2022-12-08T04:37:48;11.30;;;7.40;;
2480;SDS011;57396;48.742;9.128;2022-12-08T04:40:14;12.77;;;7.57;;
2480;SDS011;57396;48.742;9.128;2022-12-08T04:42:39;13.03;;;8.77;;
2480;SDS011;57396;48.742;9.128;2022-12-08T04:45:06;12.43;;;8.20;;
2480;SDS011;57396;48.742;9.128;2022-12-08T04:47:32;12.10;;;7.73;;
2480;SDS011;57396;48.742;9.128;2022-12-08T04:49:57;11.23;;;7.93;;
2480;SDS011;57396;48.742;9.128;2022-12-08T04:52:23;12.80;;;7.47;;
2480;SDS011;57396;48.742;9.128;2022-12-08T04:54:48;12.07;;;8.27;;
2480;SDS011;57396;48.742;9.128;2022-12-08T04:57:14;11.07;;;8.20;;
2480;SDS011;57396;48.742;9.128;2022-12-08T04:59:39;12.23;;;8.20;;
2480;SDS011;57396;48.742;9.128;2022-12-08T05:02:05;11.63;;;7.93;;
2480;SDS011;57396;48.742;9.128;2022-12-08T05:04:30;11.50;;;8.20;;
2480;SDS011;57396;48.742;9.128;2022-12-08T05:06:56;10.67;;;7.73;;
2480;SDS011;57396;48.742;9.128;2022-12-08T05:09:21;12.47;;;7.93;;
2480;SDS011;57396;48.742;9.128;2022-12-08T05:11:47;12.67;;;8.03;;
2480;SDS011;57396;48.742;9.128;2022-12-08T05:14:13;11.50;;;7.07;;
2480;SDS011;57396;48.742;9.128;2022-12-08T05:16:39;12.80;;;8.30;;
2480;SDS011;57396;48.742;9.128;2022-12-08T05:19:05;9.17;;;7.37;;
2480;SDS011;57396;48.742;9.128;2022-12-08T05:21:30;13.30;;;7.43;;
2480;SDS011;57396;48.742;9.128;2022-12-08T05:23:56;12.30;;;8.47;;
2480;SDS011;57396;48.742;9.128;2022-12-08T05:26:21;10.37;;;7.30;;
2480;SDS011;57396;48.742;9.128;2022-12-08T05:28:47;10.57;;;7.37;;
2480;SDS011;57396;48.742;9.128;2022-12-08T05:31:13;17.07;;;9.03;;
2480;SDS011;57396;48.742;9.128;2022-12-08T05:33:39;37.23;;;20.87;;
2480;SDS011;57396;48.742;9.128;2022-12-08T05:36:05;62.20;;;31.83;;
2480;SDS011;57396;48.742;9.128;2022-12-08T05:38:31;19.90;;;11.80;;
2480;SDS011;57396;48.742;9.128;2022-12-08T05:40:57;20.03;;;14.83;;
2480;SDS011;57396;48.742;9.128;2022-12-08T05:43:22;23.67;;;15.87;;
2480;SDS011;57396;48.742;9.128;2022-12-08T05:45:48;23.67;;;15.63;;
2480;SDS011;57396;48.742;9.128;2022-12-08T05:48:13;24.20;;;11.00;;
2480;SDS011;57396;48.742;9.128;2022-12-08T05:50:39;19.80;;;11.40;;
2480;SDS011;57396;48.742;9.128;2022-12-08T05:53:10;20.20;;;12.87;;
2480;SDS011;57396;48.742;9.128;2022-12-08T05:55:35;22.57;;;10.90;;
2480;SDS011;57396;48.742;9.128;2022-12-08T05:58:01;16.13;;;10.60;;
2480;SDS011;57396;48.742;9.128;2022-12-08T06:00:26;13.93;;;9.90;;
2480;SDS011;57396;48.742;9.128;2022-12-08T06:02:51;13.97;;;8.63;;
2480;SDS011;57396;48.742;9.128;2022-12-08T06:05:17;12.03;;;7.80;;
2480;SDS011;57396;48.742;9.128;2022-12-08T06:07:42;15.43;;;8.00;;
2480;SDS011;57396;48.742;9.128;2022-12-08T06:10:08;12.03;;;7.47;;
2480;SDS011;57396;48.742;9.128;2022-12-08T06:12:34;12.23;;;7.30;;
2480;SDS011;57396;48.742;9.128;2022-12-08T06:14:59;13.70;;;7.60;;
2480;SDS011;57396;48.742;9.128;2022-12-08T06:17:24;10.40;;;7.83;;
2480;SDS011;57396;48.742;9.128;2022-12-08T06:19:50;11.93;;;8.10;;
2480;SDS011;57396;48.742;9.128;2022-12-08T06:22:15;16.40;;;9.10;;
2480;SDS011;57396;48.742;9.128;2022-12-08T06:24:41;12.10;;;8.00;;
2480;SDS011;57396;48.742;9.128;2022-12-08T06:27:06;10.40;;;7.20;;
2480;SDS011;57396;48.742;9.128;2022-12-08T06:29:32;9.43;;;7.20;;
2480;SDS011;57396;48.742;9.128;2022-12-08T06:31:57;11.73;;;7.33;;
2480;SDS011;57396;48.742;9.128;2022-12-08T06:34:22;11.53;;;6.80;;
2480;SDS011;57396;48.742;9.128;2022-12-08T06:36:48;10.63;;;7.20;;
2480;SDS011;57396;48.742;9.128;2022-12-08T06:39:13;9.40;;;7.00;;
2480;SDS011;57396;48.742;9.128;2022-12-08T06:41:39;10.20;;;7.13;;
2480;SDS011;57396;48.742;9.128;2022-12-08T06:44:24;10.13;;;6.57;;
2480;SDS011;57396;48.742;9.128;2022-12-08T06:46:50;10.10;;;7.17;;
2480;SDS011;57396;48.742;9.128;2022-12-08T06:49:15;11.23;;;7.03;;
2480;SDS011;57396;48.742;9.128;2022-12-08T06:51:40;11.60;;;7.60;;
2480;SDS011;57396;48.742;9.128;2022-12-08T06:54:06;12.97;;;9.07;;
2480;SDS011;57396;48.742;9.128;2022-12-08T06:56:31;12.73;;;9.17;;
2480;SDS011;57396;48.742;9.128;2022-12-08T06:58:57;13.77;;;9.67;;
2480;SDS011;57396;48.742;9.128;2022-12-08T07:01:22;13.40;;;8.30;;
2480;SDS011;57396;48.742;9.128;2022-12-08T07:03:48;10.90;;;8.00;;
2480;SDS011;57396;48.742;9.128;2022-12-08T07:06:14;16.30;;;8.47;;
2480;SDS011;57396;48.742;9.128;2022-12-08T07:08:40;12.90;;;7.63;;
2480;SDS011;57396;48.742;9.128;2022-12-08T07:11:07;10.80;;;7.70;;
2480;SDS011;57396;48.742;9.128;2022-12-08T07:13:33;11.83;;;7.50;;
2480;SDS011;57396;48.742;9.128;2022-12-08T07:15:59;13.33;;;7.80;;
2480;SDS011;57396;48.742;9.128;2022-12-08T07:18:24;12.33;;;8.20;;
2480;SDS011;57396;48.742;9.128;2022-12-08T07:20:50;14.60;;;7.87;;
2480;SDS011;57396;48.742;9.128;2022-12-08T07:23:15;11.10;;;7.47;;
2480;SDS011;57396;48.742;9.128;2022-12-08T07:25:40;10.90;;;7.77;;
2480;SDS011;57396;48.742;9.128;2022-12-08T07:28:06;14.23;;;9.47;;
2480;SDS011;57396;48.742;9.128;2022-12-08T07:30:33;16.40;;;10.10;;
2480;SDS011;57396;48.742;9.128;2022-12-08T07:32:58;14.00;;;9.03;;
2480;SDS011;57396;48.742;9.128;2022-12-08T07:35:24;16.07;;;9.40;;
2480;SDS011;57396;48.742;9.128;2022-12-08T07:37:49;17.50;;;10.23;;
2480;SDS011;57396;48.742;9.128;2022-12-08T07:40:14;17.73;;;9.67;;
2480;SDS011;57396;48.742;9.128;2022-12-08T07:42:40;16.63;;;8.97;;
2480;SDS011;57396;48.742;9.128;2022-12-08T07:45:06;19.00;;;10.10;;
2480;SDS011;57396;48.742;9.128;2022-12-08T07:47:31;21.43;;;10.83;;
2480;SDS011;57396;48.742;9.128;2022-12-08T07:49:57;22.90;;;10.50;;
2480;SDS011;57396;48.742;9.128;2022-12-08T07:52:22;21.17;;;10.73;;
2480;SDS011;57396;48.742;9.128;2022-12-08T07:54:48;18.33;;;10.67;;
2480;SDS011;57396;48.742;9.128;2022-12-08T07:57:13;15.50;;;9.70;;
2480;SDS011;57396;48.742;9.128;2022-12-08T07:59:39;19.57;;;11.27;;
2480;SDS011;57396;48.742;9.128;2022-12-08T08:02:04;20.17;;;10.00;;
2480;SDS011;57396;48.742;9.128;2022-12-08T08:04:30;14.50;;;9.20;;
2480;SDS011;57396;48.742;9.128;2022-12-08T08:06:55;15.37;;;9.40;;
2480;SDS011;57396;48.742;9.128;2022-12-08T08:09:21;18.40;;;10.10;;
2480;SDS011;57396;48.742;9.128;2022-12-08T08:11:46;18.70;;;9.80;;
2480;SDS011;57396;48.742;9.128;2022-12-08T08:14:12;16.57;;;10.67;;
2480;SDS011;57396;48.742;9.128;2022-12-08T08:16:37;23.83;;;9.77;;
2480;SDS011;57396;48.742;9.128;2022-12-08T08:19:05;15.57;;;10.07;;
2480;SDS011;57396;48.742;9.128;2022-12-08T08:21:31;21.50;;;12.17;;
2480;SDS011;57396;48.742;9.128;2022-12-08T08:23:56;25.60;;;12.87;;
2480;SDS011;57396;48.742;9.128;2022-12-08T08:26:23;18.10;;;11.30;;
2480;SDS011;57396;48.742;9.128;2022-12-08T08:28:48;14.17;;;8.90;;
2480;SDS011;57396;48.742;9.128;2022-12-08T08:31:14;15.20;;;8.97;;
2480;SDS011;57396;48.742;9.128;2022-12-08T08:33:39;20.87;;;9.30;;
2480;SDS011;57396;48.742;9.128;2022-12-08T08:36:05;15.33;;;8.93;;
2480;SDS011;57396;48.742;9.128;2022-12-08T08:38:32;17.70;;;9.70;;
2480;SDS011;57396;48.742;9.128;2022-12-08T08:40:57;20.93;;;9.60;;
2480;SDS011;57396;48.742;9.128;2022-12-08T08:43:23;15.47;;;7.80;;
2480;SDS011;57396;48.742;9.128;2022-12-08T08:45:55;12.13;;;7.67;;
2480;SDS011;57396;48.742;9.128;2022-12-08T08:48:22;12.63;;;9.17;;
2480;SDS011;57396;48.742;9.128;2022-12-08T08:50:47;15.97;;;7.50;;
2480;SDS011;57396;48.742;9.128;2022-12-08T08:53:13;12.60;;;7.90;;
2480;SDS011;57396;48.742;9.128;2022-12-08T08:55:38;11.87;;;6.63;;
2480;SDS011;57396;48.742;9.128;2022-12-08T08:58:04;11.00;;;7.90;;
2480;SDS011;57396;48.742;9.128;2022-12-08T09:00:29;11.40;;;7.20;;
2480;SDS011;57396;48.742;9.128;2022-12-08T09:02:55;16.53;;;7.47;;
2480;SDS011;57396;48.742;9.128;2022-12-08T09:05:20;8.43;;;6.60;;
2480;SDS011;57396;48.742;9.128;2022-12-08T09:07:46;9.60;;;6.00;;
2480;SDS011;57396;48.742;9.128;2022-12-08T09:10:11;9.30;;;6.20;;
2480;SDS011;57396;48.742;9.128;2022-12-08T09:12:36;10.63;;;8.00;;
2480;SDS011;57396;48.742;9.128;2022-12-08T09:15:02;9.60;;;7.13;;
2480;SDS011;57396;48.742;9.128;2022-12-08T09:17:28;13.77;;;6.90;;
2480;SDS011;57396;48.742;9.128;2022-12-08T09:19:53;9.20;;;6.87;;
2480;SDS011;57396;48.742;9.128;2022-12-08T09:22:19;9.90;;;6.67;;
2480;SDS011;57396;48.742;9.128;2022-12-08T09:24:44;12.13;;;6.30;;
2480;SDS011;57396;48.742;9.128;2022-12-08T09:27:09;13.60;;;6.27;;
2480;SDS011;57396;48.742;9.128;2022-12-08T09:29:35;9.00;;;6.20;;
2480;SDS011;57396;48.742;9.128;2022-12-08T09:32:00;10.07;;;6.83;;
2480;SDS011;57396;48.742;9.128;2022-12-08T09:34:26;13.47;;;8.30;;
2480;SDS011;57396;48.742;9.128;2022-12-08T09:36:51;10.87;;;7.07;;
2480;SDS011;57396;48.742;9.128;2022-12-08T09:39:17;9.80;;;7.20;;
2480;SDS011;57396;48.742;9.128;2022-12-08T09:46:50;9.13;;;6.10;;
2480;SDS011;57396;48.742;9.128;2022-12-08T09:49:18;10.93;;;7.17;;
2480;SDS011;57396;48.742;9.128;2022-12-08T09:51:45;7.93;;;6.57;;
2480;SDS011;57396;48.742;9.128;2022-12-08T09:54:16;8.30;;;6.70;;
2480;SDS011;57396;48.742;9.128;2022-12-08T09:56:44;9.40;;;6.33;;
2480;SDS011;57396;48.742;9.128;2022-12-08T09:59:21;12.03;;;6.67;;
2480;SDS011;57396;48.742;9.128;2022-12-08T10:01:48;9.13;;;6.70;;
2480;SDS011;57396;48.742;9.128;2022-12-08T10:12:49;7.77;;;5.47;;
2480;SDS011;57396;48.742;9.128;2022-12-08T10:15:25;6.70;;;5.40;;
2480;SDS011;57396;48.742;9.128;2022-12-08T10:18:10;8.93;;;5.70;;
2480;SDS011;57396;48.742;9.128;2022-12-08T10:20:42;8.87;;;5.70;;
2480;SDS011;57396;48.742;9.128;2022-12-08T10:25:39;9.63;;;5.07;;
2480;SDS011;57396;48.742;9.128;2022-12-08T10:28:08;11.87;;;6.07;;
2480;SDS011;57396;48.742;9.128;2022-12-08T10:30:34;9.13;;;5.80;;
2480;SDS011;57396;48.742;9.128;2022-12-08T10:33:00;5.47;;;4.87;;
2480;SDS011;57396;48.742;9.128;2022-12-08T10:35:25;10.33;;;5.60;;
2480;SDS011;57396;48.742;9.128;2022-12-08T10:38:14;5.60;;;4.60;;
2480;SDS011;57396;48.742;9.128;2022-12-08T10:40:41;5.97;;;5.10;;
2480;SDS011;57396;48.742;9.128;2022-12-08T10:43:11;6.13;;;4.70;;
2480;SDS011;57396;48.742;9.128;2022-12-08T10:45:39;6.90;;;4.40;;
2480;SDS011;57396;48.742;9.128;2022-12-08T10:48:12;5.90;;;4.67;;
2480;SDS011;57396;48.742;9.128;2022-12-08T10:53:12;5.20;;;4.67;;
2480;SDS011;57396;48.742;9.128;2022-12-08T10:55:52;5.67;;;4.93;;
2480;SDS011;57396;48.742;9.128;2022-12-08T10:58:36;5.60;;;4.50;;
2480;SDS011;57396;48.742;9.128;2022-12-08T11:03:43;5.30;;;4.37;;
2480;SDS011;57396;48.742;9.128;2022-12-08T11:14:24;6.43;;;4.80;;
2480;SDS011;57396;48.742;9.128;2022-12-08T11:16:52;6.00;;;5.13;;
2480;SDS011;57396;48.742;9.128;2022-12-08T11:19:20;4.80;;;4.30;;
2480;SDS011;57396;48.742;9.128;2022-12-08T11:21:46;7.00;;;4.17;;
2480;SDS011;57396;48.742;9.128;2022-12-08T11:24:23;5.00;;;4.23;;
2480;SDS011;57396;48.742;9.128;2022-12-08T11:26:59;6.03;;;5.13;;
2480;SDS011;57396;48.742;9.128;2022-12-08T11:29:27;5.53;;;4.40;;
2480;SDS011;57396;48.742;9.128;2022-12-08T11:31:54;5.60;;;4.77;;
2480;SDS011;57396;48.742;9.128;2022-12-08T11:34:33;6.67;;;4.63;;
2480;SDS011;57396;48.742;9.128;2022-12-08T11:36:59;5.93;;;4.60;;
2480;SDS011;57396;48.742;9.128;2022-12-08T11:39:27;6.23;;;4.83;;
2480;SDS011;57396;48.742;9.128;2022-12-08T11:41:56;6.77;;;5.00;;
2480;SDS011;57396;48.742;9.128;2022-12-08T11:47:11;5.00;;;4.50;;
2480;SDS011;57396;48.742;9.128;2022-12-08T11:49:39;9.20;;;5.30;;
2480;SDS011;57396;48.742;9.128;2022-12-08T11:55:02;6.03;;;4.60;;
2480;SDS011;57396;48.742;9.128;2022-12-08T11:57:37;5.57;;;4.70;;
2480;SDS011;57396;48.742;9.128;2022-12-08T12:00:03;6.10;;;4.97;;
2480;SDS011;57396;48.742;9.128;2022-12-08T12:02:30;5.80;;;5.00;;
2480;SDS011;57396;48.742;9.128;2022-12-08T12:18:48;6.50;;;4.83;;
2480;SDS011;57396;48.742;9.128;2022-12-08T12:21:19;5.57;;;4.37;;
2480;SDS011;57396;48.742;9.128;2022-12-08T12:24:05;5.87;;;4.40;;
2480;SDS011;57396;48.742;9.128;2022-12-08T12:27:00;4.90;;;4.40;;
2480;SDS011;57396;48.742;9.128;2022-12-08T12:29:47;5.30;;;4.30;;
2480;SDS011;57396;48.742;9.128;2022-12-08T12:32:14;6.77;;;4.40;;
2480;SDS011;57396;48.742;9.128;2022-12-08T12:34:46;5.33;;;4.40;;
2480;SDS011;57396;48.742;9.128;2022-12-08T12:37:21;6.60;;;5.50;;
2480;SDS011;57396;48.742;9.128;2022-12-08T12:47:44;6.27;;;4.30;;
2480;SDS011;57396;48.742;9.128;2022-12-08T12:50:11;5.30;;;4.23;;
2480;SDS011;57396;48.742;9.128;2022-12-08T12:52:38;7.10;;;4.60;;
2480;SDS011;57396;48.742;9.128;2022-12-08T12:57:38;6.37;;;4.70;;
2480;SDS011;57396;48.742;9.128;2022-12-08T13:02:37;6.73;;;4.37;;
2480;SDS011;57396;48.742;9.128;2022-12-08T13:05:13;8.90;;;4.70;;
2480;SDS011;57396;48.742;9.128;2022-12-08T13:07:42;6.67;;;4.47;;
2480;SDS011;57396;48.742;9.128;2022-12-08T13:12:40;5.00;;;4.50;;
2480;SDS011;57396;48.742;9.128;2022-12-08T13:15:13;7.30;;;4.57;;
2480;SDS011;57396;48.742;9.128;2022-12-08T13:17:44;9.83;;;5.10;;
2480;SDS011;57396;48.742;9.128;2022-12-08T13:20:18;6.60;;;5.00;;
2480;SDS011;57396;48.742;9.128;2022-12-08T13:22:47;6.60;;;4.57;;
2480;SDS011;57396;48.742;9.128;2022-12-08T13:28:11;6.20;;;4.60;;
2480;SDS011;57396;48.742;9.128;2022-12-08T13:33:21;7.90;;;4.87;;
2480;SDS011;57396;48.742;9.128;2022-12-08T13:38:38;7.83;;;5.37;;
2480;SDS011;57396;48.742;9.128;2022-12-08T13:41:17;15.90;;;4.60;;
2480;SDS011;57396;48.742;9.128;2022-12-08T13:44:03;6.40;;;4.50;;
2480;SDS011;57396;48.742;9.128;2022-12-08T13:46:32;10.40;;;5.00;;
2480;SDS011;57396;48.742;9.128;2022-12-08T13:49:00;5.63;;;4.43;;
2480;SDS011;57396;48.742;9.128;2022-12-08T13:51:28;8.27;;;5.10;;
2480;SDS011;57396;48.742;9.128;2022-12-08T13:54:05;5.63;;;4.67;;
2480;SDS011;57396;48.742;9.128;2022-12-08T13:56:41;9.60;;;5.00;;
2480;SDS011;57396;48.742;9.128;2022-12-08T14:01:55;7.43;;;5.50;;
2480;SDS011;57396;48.742;9.128;2022-12-08T14:04:23;6.30;;;5.00;;
2480;SDS011;57396;48.742;9.128;2022-12-08T14:06:54;5.90;;;5.17;;
2480;SDS011;57396;48.742;9.128;2022-12-08T14:09:22;6.27;;;4.80;;
2480;SDS011;57396;48.742;9.128;2022-12-08T14:11:53;6.60;;;5.00;;
2480;SDS011;57396;48.742;9.128;2022-12-08T14:17:23;7.53;;;5.50;;
2480;SDS011;57396;48.742;9.128;2022-12-08T14:19:44;7.90;;;4.87;;
2480;SDS011;57396;48.742;9.128;2022-12-08T14:22:20;7.47;;;5.37;;
2480;SDS011;57396;48.742;9.128;2022-12-08T14:24:46;6.27;;;4.80;;
2480;SDS011;57396;48.742;9.128;2022-12-08T14:27:14;5.47;;;4.60;;
2480;SDS011;57396;48.742;9.128;2022-12-08T14:29:52;8.23;;;5.43;;
2480;SDS011;57396;48.742;9.128;2022-12-08T14:32:48;6.20;;;4.63;;
2480;SDS011;57396;48.742;9.128;2022-12-08T14:37:48;5.70;;;4.70;;
2480;SDS011;57396;48.742;9.128;2022-12-08T14:42:51;11.60;;;5.73;;
2480;SDS011;57396;48.742;9.128;2022-12-08T14:45:18;8.73;;;6.23;;
2480;SDS011;57396;48.742;9.128;2022-12-08T14:47:44;9.57;;;4.63;;
2480;SDS011;57396;48.742;9.128;2022-12-08T14:53:13;11.43;;;5.40;;
2480;SDS011;57396;48.742;9.128;2022-12-08T14:55:40;9.53;;;4.67;;
2480;SDS011;57396;48.742;9.128;2022-12-08T14:58:14;9.60;;;5.73;;
2480;SDS011;57396;48.742;9.128;2022-12-08T15:00:48;7.90;;;5.33;;
2480;SDS011;57396;48.742;9.128;2022-12-08T15:03:16;6.83;;;5.23;;
2480;SDS011;57396;48.742;9.128;2022-12-08T15:05:42;10.50;;;5.53;;
2480;SDS011;57396;48.742;9.128;2022-12-08T15:08:08;7.33;;;5.27;;
2480;SDS011;57396;48.742;9.128;2022-12-08T15:10:35;8.00;;;5.47;;
2480;SDS011;57396;48.742;9.128;2022-12-08T15:15:48;6.97;;;5.13;;
2480;SDS011;57396;48.742;9.128;2022-12-08T15:18:19;8.20;;;5.60;;
2480;SDS011;57396;48.742;9.128;2022-12-08T15:20:59;7.63;;;5.10;;
2480;SDS011;57396;48.742;9.128;2022-12-08T15:23:27;8.63;;;5.23;;
2480;SDS011;57396;48.742;9.128;2022-12-08T15:25:55;5.83;;;4.67;;
2480;SDS011;57396;48.742;9.128;2022-12-08T15:28:22;6.10;;;4.90;;
2480;SDS011;57396;48.742;9.128;2022-12-08T15:30:49;8.13;;;5.43;;
2480;SDS011;57396;48.742;9.128;2022-12-08T15:33:15;9.20;;;6.17;;
2480;SDS011;57396;48.742;9.128;2022-12-08T15:35:41;8.37;;;4.77;;
2480;SDS011;57396;48.742;9.128;2022-12-08T15:38:10;8.50;;;5.10;;
2480;SDS011;57396;48.742;9.128;2022-12-08T15:40:41;7.07;;;4.97;;
2480;SDS011;57396;48.742;9.128;2022-12-08T15:43:08;8.50;;;5.60;;
2480;SDS011;57396;48.742;9.128;2022-12-08T15:45:35;7.67;;;5.57;;
2480;SDS011;57396;48.742;9.128;2022-12-08T15:48:00;9.97;;;6.20;;
2480;SDS011;57396;48.742;9.128;2022-12-08T15:50:25;9.33;;;5.90;;
2480;SDS011;57396;48.742;9.128;2022-12-08T15:52:51;13.53;;;5.90;;
2480;SDS011;57396;48.742;9.128;2022-12-08T15:55:17;8.13;;;5.77;;
2480;SDS011;57396;48.742;9.128;2022-12-08T15:57:52;11.07;;;5.10;;
2480;SDS011;57396;48.742;9.128;2022-12-08T16:02:47;8.97;;;6.03;;
2480;SDS011;57396;48.742;9.128;2022-12-08T16:05:13;7.17;;;5.90;;
2480;SDS011;57396;48.742;9.128;2022-12-08T16:07:38;8.33;;;5.23;;
2480;SDS011;57396;48.742;9.128;2022-12-08T16:10:04;11.83;;;5.40;;
2480;SDS011;57396;48.742;9.128;2022-12-08T16:12:30;7.83;;;5.47;;
2480;SDS011;57396;48.742;9.128;2022-12-08T16:15:14;9.00;;;5.57;;
2480;SDS011;57396;48.742;9.128;2022-12-08T16:17:40;9.47;;;5.77;;
2480;SDS011;57396;48.742;9.128;2022-12-08T16:20:07;6.50;;;5.20;;
2480;SDS011;57396;48.742;9.128;2022-12-08T16:22:40;7.30;;;5.70;;
2480;SDS011;57396;48.742;9.128;2022-12-08T16:25:06;7.07;;;5.00;;
2480;SDS011;57396;48.742;9.128;2022-12-08T16:27:32;20.10;;;6.50;;
2480;SDS011;57396;48.742;9.128;2022-12-08T16:29:59;15.37;;;6.60;;
2480;SDS011;57396;48.742;9.128;2022-12-08T16:32:25;9.67;;;6.20;;
2480;SDS011;57396;48.742;9.128;2022-12-08T16:34:51;9.83;;;6.40;;
2480;SDS011;57396;48.742;9.128;2022-12-08T16:37:18;9.87;;;6.83;;
2480;SDS011;57396;48.742;9.128;2022-12-08T16:39:48;9.23;;;6.00;;
2480;SDS011;57396;48.742;9.128;2022-12-08T16:42:18;8.47;;;6.40;;
2480;SDS011;57396;48.742;9.128;2022-12-08T16:45:04;9.50;;;6.30;;
2480;SDS011;57396;48.742;9.128;2022-12-08T16:47:35;9.97;;;7.00;;
2480;SDS011;57396;48.742;9.128;2022-12-08T16:50:14;11.40;;;6.73;;
2480;SDS011;57396;48.742;9.128;2022-12-08T16:52:41;10.70;;;7.10;;
2480;SDS011;57396;48.742;9.128;2022-12-08T16:55:11;8.90;;;6.73;;
2480;SDS011;57396;48.742;9.128;2022-12-08T16:57:39;8.70;;;7.20;;
2480;SDS011;57396;48.742;9.128;2022-12-08T17:00:05;9.87;;;7.17;;
2480;SDS011;57396;48.742;9.128;2022-12-08T17:02:32;11.27;;;7.37;;